Time;durP1;ratioP1;P1;durP2;ratioP2;P2;SDS_P1;SDS_P2;PMS_P1;PMS_P2;Temp;Humidity;BMP_temperature;BMP_pressure;BME280_temperature;BME280_humidity;BME280_pressure;Samples;Min_cycle;Max_cycle;Signal;HPM_P1;HPM_P2
2021/01/19 00:02:12;;;;;;;32.17;16.75;;;5.30;99.90;;;;;;4989352;28;20052;-60
2021/01/19 00:04:37;;;;;;;28.33;15.52;;;5.30;99.90;;;;;;5001450;28;20559;-60
2021/01/19 00:07:03;;;;;;;31.90;16.63;;;5.30;99.90;;;;;;5006542;28;20067;-62
2021/01/19 00:09:31;;;;;;;42.53;17.35;;;5.30;99.90;;;;;;5006187;28;20051;-62
2021/01/19 00:11:56;;;;;;;31.00;15.70;;;5.30;99.90;;;;;;5007459;28;20033;-60
2021/01/19 00:14:22;;;;;;;30.60;15.73;;;5.30;99.90;;;;;;5006529;28;20376;-61
2021/01/19 00:16:48;;;;;;;32.88;15.38;;;5.30;99.90;;;;;;5008042;28;20030;-54
2021/01/19 00:19:13;;;;;;;30.70;15.88;;;5.30;99.90;;;;;;5005564;28;20022;-56
2021/01/19 00:21:39;;;;;;;27.02;13.57;;;5.30;99.90;;;;;;5008260;28;20033;-63
2021/01/19 00:26:49;;;;;;;26.05;14.40;;;5.30;99.90;;;;;;5008212;28;20037;-55
2021/01/19 00:29:33;;;;;;;30.38;14.45;;;5.30;99.90;;;;;;5006670;28;20101;-61
2021/01/19 00:31:59;;;;;;;28.90;12.55;;;5.30;99.90;;;;;;5005776;28;20026;-62
2021/01/19 00:34:24;;;;;;;27.55;14.65;;;5.40;99.90;;;;;;5006735;28;20030;-60
2021/01/19 00:40:12;;;;;;;26.20;12.93;;;5.40;99.90;;;;;;5008518;28;20025;-61
2021/01/19 00:42:57;;;;;;;25.92;11.77;;;5.40;99.90;;;;;;5008238;28;20133;-61
2021/01/19 00:45:41;;;;;;;27.73;12.75;;;5.40;99.90;;;;;;5007749;28;20017;-60
2021/01/19 00:48:25;;;;;;;23.88;11.02;;;5.40;99.90;;;;;;5007644;28;20041;-62
2021/01/19 00:50:51;;;;;;;23.85;10.98;;;5.40;99.90;;;;;;5008811;28;20563;-62
2021/01/19 00:53:17;;;;;;;26.15;12.10;;;5.40;99.90;;;;;;5008536;28;20025;-60
2021/01/19 00:58:45;;;;;;;26.30;12.05;;;5.40;99.90;;;;;;5006969;28;20076;-58
2021/01/19 01:01:11;;;;;;;21.98;11.90;;;5.40;99.90;;;;;;5004942;28;20128;-62
2021/01/19 01:03:55;;;;;;;31.90;12.20;;;5.40;99.90;;;;;;5010081;28;20116;-61
2021/01/19 01:11:49;;;;;;;24.55;10.93;;;5.50;99.90;;;;;;4973034;28;20490;-60
2021/01/19 01:17:00;;;;;;;23.83;10.50;;;5.50;99.90;;;;;;4973288;28;20084;-61
2021/01/19 01:19:26;;;;;;;24.25;11.02;;;5.50;99.90;;;;;;4954699;28;20031;-61
2021/01/19 01:21:52;;;;;;;25.08;10.32;;;5.50;99.90;;;;;;4955640;28;20042;-61
2021/01/19 01:24:18;;;;;;;26.83;11.10;;;5.50;99.90;;;;;;4973227;28;20030;-59
2021/01/19 01:26:43;;;;;;;26.50;11.35;;;5.50;99.90;;;;;;4973100;28;20030;-60
2021/01/19 01:29:09;;;;;;;22.35;10.25;;;5.50;99.90;;;;;;4954468;28;20031;-60
2021/01/19 01:34:38;;;;;;;24.52;11.07;;;5.50;99.90;;;;;;4972982;28;20034;-60
2021/01/19 01:37:04;;;;;;;25.95;11.20;;;5.50;99.90;;;;;;4955783;28;20022;-59
2021/01/19 01:39:30;;;;;;;22.90;10.60;;;5.50;99.90;;;;;;4939021;28;20062;-60
2021/01/19 01:41:56;;;;;;;27.45;10.75;;;5.50;99.90;;;;;;4972370;28;20043;-60
2021/01/19 01:44:59;;;;;;;23.70;9.73;;;5.50;99.90;;;;;;4955234;28;20035;-59
2021/01/19 01:47:27;;;;;;;22.75;9.82;;;5.50;99.90;;;;;;4955228;28;20080;-60
2021/01/19 01:50:11;;;;;;;26.58;11.65;;;5.50;99.90;;;;;;4971731;28;20042;-60
2021/01/19 01:53:15;;;;;;;23.77;12.10;;;5.50;99.90;;;;;;4954752;28;20118;-62
2021/01/19 01:55:41;;;;;;;25.80;10.68;;;5.40;99.90;;;;;;4972186;28;20023;-62
2021/01/19 01:58:07;;;;;;;26.85;12.43;;;5.40;99.90;;;;;;4956221;28;20085;-61
2021/01/19 02:00:33;;;;;;;22.02;9.65;;;5.40;99.90;;;;;;4971539;28;20038;-60
2021/01/19 02:02:59;;;;;;;28.20;11.18;;;5.40;99.90;;;;;;4958524;28;20030;-58
2021/01/19 02:08:40;;;;;;;30.25;13.25;;;5.40;99.90;;;;;;4974515;28;20513;-61
2021/01/19 02:11:21;;;;;;;21.25;9.85;;;5.40;99.90;;;;;;4969400;28;20096;-62
2021/01/19 02:14:18;;;;;;;25.05;9.80;;;5.40;99.90;;;;;;4975512;28;20037;-61
2021/01/19 02:17:07;;;;;;;21.58;8.18;;;5.30;99.90;;;;;;4918845;28;20066;-62
2021/01/19 02:20:01;;;;;;;22.40;8.57;;;5.30;99.90;;;;;;4975089;28;20098;-60
2021/01/19 02:22:36;;;;;;;27.85;10.05;;;5.30;99.90;;;;;;4976128;28;20047;-61
2021/01/19 02:25:39;;;;;;;23.70;10.13;;;5.30;99.90;;;;;;4958600;28;20023;-60
2021/01/19 02:28:37;;;;;;;20.85;7.50;;;5.30;99.90;;;;;;4966567;28;20031;-60
2021/01/19 02:31:11;;;;;;;23.55;8.52;;;5.30;99.90;;;;;;4974771;28;20066;-59
2021/01/19 02:34:11;;;;;;;23.13;7.85;;;5.30;99.90;;;;;;4958490;28;20027;-58
2021/01/19 02:37:02;;;;;;;27.00;7.45;;;5.30;99.90;;;;;;4975982;28;20364;-61
2021/01/19 02:39:55;;;;;;;18.92;6.50;;;5.30;99.90;;;;;;4971222;28;20030;-60
2021/01/19 02:42:33;;;;;;;23.42;6.88;;;5.30;99.90;;;;;;4975495;28;20497;-61
2021/01/19 02:45:18;;;;;;;;;;;5.30;99.90;;;;;;4975782;28;20081;-60
2021/01/19 02:47:44;;;;;;;20.42;7.10;;;5.30;99.90;;;;;;4975644;28;19945;-60
2021/01/19 02:50:10;;;;;;;16.77;5.68;;;5.30;99.90;;;;;;4970593;28;20036;-59
2021/01/19 02:52:41;;;;;;;21.85;6.35;;;5.30;99.90;;;;;;4957418;28;20095;-61
2021/01/19 02:55:07;;;;;;;25.13;6.78;;;5.30;99.90;;;;;;4957933;28;20075;-59
2021/01/19 02:57:57;;;;;;;20.52;6.32;;;5.30;99.90;;;;;;4976048;28;20050;-61
2021/01/19 03:00:40;;;;;;;18.95;5.45;;;5.30;99.90;;;;;;4964999;28;20026;-59
2021/01/19 03:03:08;;;;;;;16.50;4.93;;;5.30;99.90;;;;;;4960657;28;20038;-59
2021/01/19 03:05:36;;;;;;;17.88;6.15;;;5.30;99.90;;;;;;4967179;28;20677;-61
2021/01/19 03:08:04;;;;;;;16.38;6.00;;;5.40;99.90;;;;;;4970169;28;20043;-56
2021/01/19 03:10:49;;;;;;;16.02;5.72;;;5.40;99.90;;;;;;4957962;28;20041;-61
2021/01/19 03:13:14;;;;;;;19.80;5.07;;;5.40;99.90;;;;;;4975180;28;20023;-58
2021/01/19 03:15:40;;;;;;;19.00;5.93;;;5.40;99.90;;;;;;4974681;28;20030;-60
2021/01/19 03:18:07;;;;;;;16.25;4.40;;;5.30;99.90;;;;;;4974153;28;20085;-60
2021/01/19 03:20:51;;;;;;;16.23;5.28;;;5.40;99.90;;;;;;4956698;28;20034;-60
2021/01/19 03:23:35;;;;;;;14.20;4.45;;;5.30;99.90;;;;;;4974280;28;20035;-60
2021/01/19 03:26:20;;;;;;;16.25;5.20;;;5.30;99.90;;;;;;4973602;28;20031;-59
2021/01/19 03:34:34;;;;;;;14.48;4.75;;;5.30;99.90;;;;;;4975217;28;20045;-59
2021/01/19 03:37:19;;;;;;;15.50;4.65;;;5.30;99.90;;;;;;4974536;28;20026;-57
2021/01/19 03:39:45;;;;;;;17.10;4.25;;;5.30;99.90;;;;;;4956470;28;20470;-58
2021/01/19 03:42:10;;;;;;;18.27;4.85;;;5.30;99.90;;;;;;4974434;28;20042;-57
2021/01/19 03:44:36;;;;;;;13.25;4.38;;;5.30;99.90;;;;;;4957134;28;20031;-61
2021/01/19 03:47:03;;;;;;;14.90;4.53;;;5.30;99.90;;;;;;4957199;28;20476;-54
2021/01/19 03:49:29;;;;;;;12.50;4.18;;;5.40;99.90;;;;;;4956956;28;20121;-56
2021/01/19 03:51:54;;;;;;;14.70;4.25;;;5.30;99.90;;;;;;4957541;28;20061;-57
2021/01/19 03:54:39;;;;;;;16.23;4.35;;;5.40;99.90;;;;;;4957632;28;20491;-57
2021/01/19 03:57:05;;;;;;;15.43;4.35;;;5.30;99.90;;;;;;4974727;28;20029;-58
2021/01/19 03:59:32;;;;;;;14.43;4.97;;;5.30;99.90;;;;;;4973839;28;20031;-52
2021/01/19 04:01:58;;;;;;;17.27;5.97;;;5.30;99.90;;;;;;4964961;28;20031;-61
2021/01/19 04:04:24;;;;;;;18.05;4.60;;;5.20;99.90;;;;;;4960027;28;20331;-55
2021/01/19 04:07:27;;;;;;;14.32;4.20;;;5.20;99.90;;;;;;4952085;28;20082;-57
2021/01/19 04:09:53;;;;;;;14.43;4.65;;;5.30;99.90;;;;;;4973309;28;20054;-59
2021/01/19 04:12:19;;;;;;;14.35;4.03;;;5.30;99.90;;;;;;4966406;28;20019;-60
2021/01/19 04:15:22;;;;;;;13.52;4.00;;;5.30;99.90;;;;;;4970338;28;20081;-60
2021/01/19 04:17:48;;;;;;;13.70;5.20;;;5.30;99.90;;;;;;4973823;28;20085;-57
2021/01/19 04:20:33;;;;;;;14.85;4.75;;;5.30;99.90;;;;;;4973529;28;20030;-59
2021/01/19 04:22:59;;;;;;;14.38;4.28;;;5.30;99.90;;;;;;4973927;28;20027;-60
2021/01/19 04:25:25;;;;;;;17.38;4.82;;;5.40;99.90;;;;;;4973520;28;20340;-58
2021/01/19 04:28:10;;;;;;;11.38;3.88;;;5.40;99.90;;;;;;4973262;28;20023;-59
2021/01/19 04:30:54;;;;;;;16.15;5.05;;;5.40;99.90;;;;;;4962603;28;20402;-55
2021/01/19 04:33:38;;;;;;;14.85;4.45;;;5.30;99.90;;;;;;4973198;28;20031;-60
2021/01/19 04:36:06;;;;;;;14.63;4.28;;;5.30;99.90;;;;;;4972235;28;20406;-59
2021/01/19 04:38:31;;;;;;;11.90;4.07;;;5.20;99.90;;;;;;4958398;28;20502;-60
2021/01/19 04:40:57;;;;;;;15.02;4.32;;;5.20;99.90;;;;;;4963421;28;20058;-61
2021/01/19 04:43:24;;;;;;;15.25;4.03;;;5.20;99.90;;;;;;4968516;28;20395;-59
2021/01/19 04:46:09;;;;;;;16.15;4.65;;;5.20;99.90;;;;;;4973285;28;20037;-56
2021/01/19 04:54:28;;;;;;;17.13;5.13;;;5.00;99.90;;;;;;4973430;28;20089;-57
2021/01/19 04:56:55;;;;;;;18.50;4.55;;;5.00;99.90;;;;;;4973271;28;20027;-61
2021/01/19 04:59:24;;;;;;;21.92;4.90;;;4.90;99.90;;;;;;4972439;28;20422;-59
2021/01/19 05:02:14;;;;;;;13.27;4.30;;;4.90;99.90;;;;;;4980125;28;20494;-62
2021/01/19 05:04:47;;;;;;;15.93;5.30;;;4.90;99.90;;;;;;4957948;28;20062;-57
2021/01/19 05:07:33;;;;;;;14.90;4.90;;;4.90;99.90;;;;;;4952745;28;20037;-60
2021/01/19 05:10:05;;;;;;;15.50;4.95;;;4.80;99.90;;;;;;4971223;28;20046;-56
2021/01/19 05:12:45;;;;;;;14.32;5.45;;;4.80;99.90;;;;;;4972983;28;20026;-58
2021/01/19 05:15:13;;;;;;;14.75;4.88;;;4.70;99.90;;;;;;4973581;28;20034;-58
2021/01/19 05:20:48;;;;;;;16.63;5.50;;;4.70;99.90;;;;;;4973412;28;20129;-59
2021/01/19 05:23:32;;;;;;;16.02;5.40;;;4.60;99.90;;;;;;4972811;28;20082;-58
2021/01/19 05:26:00;;;;;;;15.27;5.60;;;4.60;99.90;;;;;;4972952;28;20026;-58
2021/01/19 05:28:47;;;;;;;16.50;6.10;;;4.60;99.90;;;;;;4972226;28;20031;-59
2021/01/19 05:31:15;;;;;;;21.75;7.32;;;4.50;99.90;;;;;;4971334;28;20060;-59
2021/01/19 05:33:55;;;;;;;;;;;4.50;99.90;;;;;;4973121;28;20023;-51
2021/01/19 05:36:25;;;;;;;19.35;7.15;;;4.60;99.90;;;;;;4972842;28;19996;-62
2021/01/19 05:38:56;;;;;;;25.35;11.45;;;4.50;99.90;;;;;;4972252;28;20029;-57
2021/01/19 05:41:28;;;;;;;18.90;10.80;;;4.50;99.90;;;;;;4971401;28;20023;-60
2021/01/19 05:46:48;;;;;;;20.33;12.98;;;4.40;99.90;;;;;;4976762;28;20166;-62
2021/01/19 05:49:16;;;;;;;21.83;10.98;;;4.30;99.90;;;;;;4975134;28;20054;-59
2021/01/19 05:51:47;;;;;;;21.20;12.25;;;4.40;99.90;;;;;;4975845;28;20042;-55
2021/01/19 05:54:42;;;;;;;18.35;12.10;;;4.30;99.90;;;;;;4975758;28;20026;-57
2021/01/19 05:57:12;;;;;;;24.20;12.82;;;4.30;99.90;;;;;;4975831;28;20131;-60
2021/01/19 05:59:37;;;;;;;18.55;9.90;;;4.40;99.90;;;;;;4973615;28;20057;-59
2021/01/19 06:05:15;;;;;;;23.85;10.80;;;4.40;99.90;;;;;;4976039;28;20078;-60
2021/01/19 06:07:45;;;;;;;18.50;10.37;;;4.40;99.90;;;;;;4973962;28;20147;-58
2021/01/19 06:13:00;;;;;;;20.75;9.77;;;4.40;99.90;;;;;;4975557;28;20119;-58
2021/01/19 06:15:45;;;;;;;25.10;11.10;;;4.40;99.90;;;;;;4973316;28;20029;-59
2021/01/19 06:18:36;;;;;;;17.80;10.48;;;4.40;99.90;;;;;;4973948;28;20054;-58
2021/01/19 06:21:02;;;;;;;23.27;11.73;;;4.40;99.90;;;;;;4974348;28;20027;-60
2021/01/19 06:23:28;;;;;;;24.45;11.10;;;4.40;99.90;;;;;;4974284;28;20045;-55
2021/01/19 06:26:06;;;;;;;19.83;10.43;;;4.40;99.90;;;;;;4975762;28;20023;-59
2021/01/19 06:28:42;;;;;;;22.33;9.80;;;4.40;99.90;;;;;;4973717;28;20030;-56
2021/01/19 06:31:13;;;;;;;20.23;10.57;;;4.50;99.90;;;;;;4975779;28;20060;-57
2021/01/19 06:36:44;;;;;;;17.88;10.30;;;4.40;99.90;;;;;;4975659;28;20116;-60
2021/01/19 06:39:22;;;;;;;20.30;12.00;;;4.40;99.90;;;;;;4973502;28;20521;-56
2021/01/19 06:42:07;;;;;;;20.48;12.05;;;4.40;99.90;;;;;;4975420;28;20042;-58
2021/01/19 06:44:46;;;;;;;21.25;12.63;;;4.30;99.90;;;;;;4973913;28;20027;-58
2021/01/19 06:47:13;;;;;;;;;;;4.20;99.90;;;;;;4975749;28;20027;-60
2021/01/19 06:49:39;;;;;;;21.40;11.82;;;4.20;99.90;;;;;;4974536;28;20016;-55
2021/01/19 06:52:06;;;;;;;20.83;13.40;;;4.20;99.90;;;;;;4975384;28;20079;-57
2021/01/19 06:54:57;;;;;;;20.42;13.05;;;4.10;99.90;;;;;;4973371;28;20109;-60
2021/01/19 06:57:49;;;;;;;19.88;13.32;;;4.10;99.90;;;;;;4973402;28;20023;-55
2021/01/19 07:00:37;;;;;;;27.83;14.27;;;4.10;99.90;;;;;;4972943;28;20085;-59
2021/01/19 07:03:17;;;;;;;21.70;14.13;;;4.00;99.90;;;;;;4974754;28;20046;-57
2021/01/19 07:06:08;;;;;;;24.58;14.55;;;4.00;99.90;;;;;;4974662;28;20054;-57
2021/01/19 07:09:11;;;;;;;19.73;13.88;;;4.00;99.90;;;;;;5035498;23;20116;-56
2021/01/19 07:14:41;;;;;;;21.83;12.93;;;4.00;99.90;;;;;;5054123;28;20446;-59
2021/01/19 07:17:18;;;;;;;22.17;13.73;;;3.90;99.90;;;;;;5053426;28;20029;-56
2021/01/19 07:19:48;;;;;;;20.40;14.00;;;3.90;99.90;;;;;;5031647;28;20043;-57
2021/01/19 07:22:38;;;;;;;27.83;15.18;;;4.00;99.90;;;;;;5033590;28;20370;-57
2021/01/19 07:25:04;;;;;;;28.10;16.92;;;3.90;99.90;;;;;;5033542;28;20068;-55
2021/01/19 07:27:31;;;;;;;22.08;15.25;;;3.90;99.90;;;;;;5032002;28;20033;-56
2021/01/19 07:29:57;;;;;;;21.90;16.08;;;3.90;99.90;;;;;;5021435;28;20033;-59
2021/01/19 07:32:29;;;;;;;23.02;15.80;;;4.00;99.90;;;;;;5013446;28;20022;-59
2021/01/19 07:34:57;;;;;;;30.90;17.23;;;3.90;99.90;;;;;;5015313;28;20079;-58
2021/01/19 07:37:31;;;;;;;20.67;14.75;;;3.90;99.90;;;;;;5014402;28;20477;-59
2021/01/19 07:39:57;;;;;;;24.45;16.90;;;3.90;99.90;;;;;;5002647;28;20057;-60
2021/01/19 07:45:33;;;;;;;23.13;14.57;;;4.00;99.90;;;;;;5033121;28;20107;-53
2021/01/19 07:51:09;;;;;;;23.58;15.73;;;4.00;99.90;;;;;;5032771;28;20474;-60
2021/01/19 07:54:04;;;;;;;21.88;15.00;;;4.00;99.90;;;;;;5032364;28;20029;-59
2021/01/19 07:56:31;;;;;;;22.35;14.40;;;4.00;99.90;;;;;;5014921;28;20036;-58
2021/01/19 07:58:58;;;;;;;26.83;15.68;;;4.00;99.90;;;;;;5031743;28;20029;-58
2021/01/19 08:01:28;;;;;;;21.58;14.98;;;4.00;99.90;;;;;;5031802;28;20036;-59
2021/01/19 08:04:13;;;;;;;23.70;15.23;;;4.10;99.90;;;;;;5030013;28;20449;-55
2021/01/19 08:06:40;;;;;;;21.58;13.30;;;4.10;99.90;;;;;;5020173;28;20456;-57
2021/01/19 08:09:10;;;;;;;24.27;15.38;;;4.10;99.90;;;;;;5031547;28;20496;-54
2021/01/19 08:11:36;;;;;;;23.95;14.13;;;4.10;99.90;;;;;;5032335;28;20029;-59
2021/01/19 08:16:49;;;;;;;19.88;10.82;;;4.20;99.90;;;;;;5032315;28;20467;-54
2021/01/19 08:19:15;;;;;;;;;;;4.20;99.90;;;;;;5031568;28;20270;-58
2021/01/19 08:21:52;;;;;;;20.55;11.13;;;4.20;99.90;;;;;;5032088;28;19905;-58
2021/01/19 08:24:23;;;;;;;20.70;11.25;;;4.20;99.90;;;;;;5014531;28;20108;-57
2021/01/19 08:26:50;;;;;;;25.13;12.95;;;4.20;99.90;;;;;;5032200;28;20060;-51
2021/01/19 08:29:38;;;;;;;19.95;11.25;;;4.20;99.90;;;;;;5031180;28;20465;-58
2021/01/19 08:32:07;;;;;;;18.92;11.35;;;4.30;99.90;;;;;;5012975;28;20057;-59
2021/01/19 08:34:32;;;;;;;23.25;12.05;;;4.30;99.90;;;;;;5011166;28;20037;-57
2021/01/19 08:39:52;;;;;;;22.52;11.52;;;4.30;99.90;;;;;;5011556;28;20441;-57
2021/01/19 08:42:20;;;;;;;20.38;12.07;;;4.30;99.90;;;;;;5012680;28;20033;-56
2021/01/19 08:44:56;;;;;;;21.13;12.45;;;4.30;99.90;;;;;;5010653;28;20456;-58
2021/01/19 08:47:22;;;;;;;23.08;11.90;;;4.30;99.90;;;;;;5012096;28;20038;-58
2021/01/19 08:49:48;;;;;;;21.02;11.35;;;4.40;99.90;;;;;;5011859;28;20105;-57
2021/01/19 08:52:14;;;;;;;21.35;10.68;;;4.40;99.90;;;;;;5012612;28;20576;-55
2021/01/19 08:54:40;;;;;;;17.67;10.25;;;4.40;99.90;;;;;;5012984;28;20053;-57
2021/01/19 08:57:24;;;;;;;18.50;9.95;;;4.40;99.90;;;;;;5012568;28;20026;-52
2021/01/19 08:59:52;;;;;;;15.77;8.43;;;4.40;99.90;;;;;;5009920;28;20457;-55
2021/01/19 09:02:18;;;;;;;18.38;9.30;;;4.50;99.90;;;;;;5010763;28;20080;-58
2021/01/19 09:04:45;;;;;;;16.85;9.60;;;4.50;99.90;;;;;;5019337;28;20067;-56
2021/01/19 09:07:30;;;;;;;18.25;10.52;;;4.50;99.90;;;;;;5013911;28;20030;-56
2021/01/19 09:10:40;;;;;;;17.88;10.23;;;4.50;99.90;;;;;;5030802;28;20104;-55
2021/01/19 09:13:07;;;;;;;17.92;10.20;;;4.50;99.90;;;;;;5011011;28;20065;-54
2021/01/19 09:15:40;;;;;;;17.27;9.63;;;4.60;99.90;;;;;;5013429;28;20035;-56
2021/01/19 09:18:25;;;;;;;17.23;9.18;;;4.60;99.90;;;;;;5030817;28;20014;-58
2021/01/19 09:21:04;;;;;;;17.73;9.32;;;4.60;99.90;;;;;;5031717;28;20029;-57
2021/01/19 09:23:31;;;;;;;17.38;8.65;;;4.60;99.90;;;;;;5031802;28;20495;-57
2021/01/19 09:26:05;;;;;;;16.55;8.15;;;4.70;99.90;;;;;;5031615;28;20025;-55
2021/01/19 09:28:38;;;;;;;20.67;9.30;;;4.70;99.90;;;;;;5013456;28;20021;-48
2021/01/19 09:31:24;;;;;;;17.50;9.18;;;4.70;99.90;;;;;;5011051;28;20060;-46
2021/01/19 09:33:52;;;;;;;18.00;8.95;;;4.70;99.90;;;;;;5011614;28;20097;-46
2021/01/19 09:36:18;;;;;;;18.67;8.98;;;4.80;99.90;;;;;;5011815;28;20030;-47
2021/01/19 09:38:47;;;;;;;17.92;8.88;;;4.80;99.90;;;;;;5010800;28;20025;-50
2021/01/19 09:41:21;;;;;;;17.67;8.00;;;4.80;99.90;;;;;;5012100;28;20470;-50
2021/01/19 09:47:00;;;;;;;16.98;8.90;;;4.80;99.90;;;;;;5011909;28;20083;-49
2021/01/19 09:52:13;;;;;;;17.15;8.73;;;4.90;99.90;;;;;;5011947;28;20069;-50
2021/01/19 09:54:39;;;;;;;17.58;8.90;;;4.80;99.90;;;;;;5011936;28;20438;-47
2021/01/19 09:57:07;;;;;;;17.35;8.57;;;4.90;99.90;;;;;;5011696;28;20030;-55
2021/01/19 09:59:52;;;;;;;17.35;9.98;;;4.90;99.90;;;;;;5009044;28;20030;-57
2021/01/19 10:02:28;;;;;;;19.88;9.48;;;4.90;99.90;;;;;;5012227;28;20065;-50
2021/01/19 10:05:04;;;;;;;16.17;8.38;;;5.00;99.90;;;;;;5011530;28;20033;-48
2021/01/19 10:10:15;;;;;;;17.40;8.85;;;5.00;99.90;;;;;;5011763;28;20036;-50
2021/01/19 10:15:27;;;;;;;17.33;10.15;;;5.00;99.90;;;;;;5012094;28;20032;-48
2021/01/19 10:17:57;;;;;;;17.60;8.98;;;5.10;99.90;;;;;;5011800;28;20025;-48
2021/01/19 10:20:41;;;;;;;17.17;8.70;;;5.10;99.90;;;;;;5011620;28;20025;-54
2021/01/19 10:23:07;;;;;;;16.40;9.90;;;5.10;99.90;;;;;;5010793;28;20084;-51
2021/01/19 10:25:34;;;;;;;15.25;8.45;;;5.10;99.90;;;;;;5010977;28;20061;-54
2021/01/19 10:28:23;;;;;;;16.92;8.88;;;5.20;99.90;;;;;;5011400;28;20026;-51
2021/01/19 10:31:13;;;;;;;16.60;8.80;;;5.20;99.90;;;;;;5014486;28;20029;-50
2021/01/19 10:33:49;;;;;;;17.38;8.30;;;5.20;99.90;;;;;;4996558;28;20045;-54
2021/01/19 10:36:16;;;;;;;17.05;9.70;;;5.30;99.90;;;;;;5014327;28;20033;-52
2021/01/19 10:38:44;;;;;;;16.33;9.45;;;5.30;99.90;;;;;;5013721;28;20058;-52
2021/01/19 10:41:10;;;;;;;14.88;8.30;;;5.40;99.90;;;;;;5014040;28;20026;-55
2021/01/19 10:43:35;;;;;;;15.70;8.35;;;5.40;99.90;;;;;;5013263;28;20040;-51
2021/01/19 10:46:20;;;;;;;18.15;10.60;;;5.40;99.90;;;;;;4996102;28;20032;-55
2021/01/19 10:48:46;;;;;;;15.48;8.57;;;5.40;99.90;;;;;;4995882;28;20041;-49
2021/01/19 10:54:16;;;;;;;15.52;8.77;;;5.50;99.90;;;;;;5014336;28;20064;-50
2021/01/19 10:56:44;;;;;;;15.43;7.93;;;5.60;99.90;;;;;;5013917;28;20060;-48
2021/01/19 10:59:10;;;;;;;16.90;9.55;;;5.60;99.90;;;;;;5013683;28;20018;-47
2021/01/19 11:01:37;;;;;;;17.92;9.75;;;5.60;99.90;;;;;;5014483;28;20034;-51
2021/01/19 11:04:04;;;;;;;16.92;8.95;;;5.70;99.90;;;;;;5014550;28;20026;-51
2021/01/19 11:06:37;;;;;;;15.95;8.45;;;5.70;99.90;;;;;;5013118;28;20156;-49
2021/01/19 11:09:06;;;;;;;21.48;8.77;;;5.70;99.90;;;;;;5013328;28;20466;-51
2021/01/19 11:11:34;;;;;;;15.88;8.40;;;5.70;99.90;;;;;;4996833;28;20030;-49
2021/01/19 11:14:07;;;;;;;17.98;8.07;;;5.70;99.90;;;;;;5014734;28;20037;-49
2021/01/19 11:19:25;;;;;;;15.60;8.80;;;5.80;99.90;;;;;;5012978;28;20053;-51
2021/01/19 11:21:51;;;;;;;15.57;9.05;;;5.80;99.90;;;;;;5013710;28;20037;-55
2021/01/19 11:24:16;;;;;;;15.52;8.70;;;5.90;99.90;;;;;;5015134;28;20494;-47
2021/01/19 11:27:01;;;;;;;14.60;8.05;;;5.90;99.90;;;;;;5014100;28;20493;-53
2021/01/19 11:29:26;;;;;;;15.52;8.23;;;6.00;99.90;;;;;;5012571;28;20120;-52
2021/01/19 11:31:52;;;;;;;15.52;8.63;;;6.00;99.90;;;;;;5013382;28;20064;-55
2021/01/19 11:37:02;;;;;;;15.65;8.02;;;6.00;99.90;;;;;;5014164;28;20036;-52
2021/01/19 11:39:29;;;;;;;16.58;9.50;;;6.10;99.90;;;;;;5010780;28;20133;-53
2021/01/19 11:42:13;;;;;;;16.73;9.48;;;6.10;99.90;;;;;;5014172;28;20018;-56
2021/01/19 11:44:39;;;;;;;16.02;8.45;;;6.10;99.90;;;;;;5014064;28;20034;-54
2021/01/19 11:47:05;;;;;;;16.10;7.97;;;6.10;99.90;;;;;;5011862;28;20026;-54
2021/01/19 11:49:30;;;;;;;16.13;8.40;;;6.10;99.90;;;;;;5010113;28;20030;-56
2021/01/19 11:51:56;;;;;;;17.05;8.77;;;6.20;99.90;;;;;;5011367;28;20022;-53
2021/01/19 11:54:22;;;;;;;18.27;8.23;;;6.30;99.90;;;;;;5012819;28;20034;-51
2021/01/19 11:59:51;;;;;;;15.80;8.63;;;6.30;99.90;;;;;;5012438;28;20044;-57
2021/01/19 12:02:35;;;;;;;18.95;8.30;;;6.30;99.90;;;;;;5011428;28;20034;-54
2021/01/19 12:05:02;;;;;;;17.77;7.80;;;6.40;99.90;;;;;;5011902;28;20048;-57
2021/01/19 12:12:56;;;;;;;14.57;7.50;;;6.50;99.90;;;;;;5013515;28;20088;-52
2021/01/19 12:15:22;;;;;;;16.40;7.45;;;6.50;99.90;;;;;;5011899;28;20478;-55
2021/01/19 12:18:06;;;;;;;14.27;7.70;;;6.50;99.90;;;;;;5012059;28;20030;-57
2021/01/19 12:23:35;;;;;;;16.25;7.15;;;6.60;99.90;;;;;;5013236;28;20083;-54
2021/01/19 12:29:05;;;;;;;18.55;7.90;;;6.70;99.90;;;;;;5012372;28;20110;-55
2021/01/19 12:31:49;;;;;;;15.90;8.57;;;6.70;99.90;;;;;;5012565;28;20022;-56
2021/01/19 12:34:34;;;;;;;15.82;8.18;;;6.70;99.90;;;;;;5012347;28;20037;-55
2021/01/19 12:37:18;;;;;;;15.18;7.70;;;6.80;99.90;;;;;;4995478;28;20034;-53
2021/01/19 12:39:44;;;;;;;14.75;7.32;;;6.80;99.90;;;;;;5011969;28;20037;-55
2021/01/19 12:42:10;;;;;;;15.88;7.28;;;6.80;99.90;;;;;;5010416;28;20030;-53
2021/01/19 12:44:36;;;;;;;16.30;7.07;;;6.90;99.90;;;;;;5011962;28;20025;-55
2021/01/19 12:49:46;;;;;;;14.15;6.68;;;6.90;99.90;;;;;;5011727;28;20113;-58
2021/01/19 12:52:12;;;;;;;13.48;6.40;;;6.90;99.90;;;;;;5011603;28;20493;-54
2021/01/19 12:54:37;;;;;;;13.73;6.78;;;7.00;99.90;;;;;;5010715;28;20037;-59
2021/01/19 12:57:03;;;;;;;13.35;6.75;;;7.00;99.90;;;;;;5011677;28;20127;-54
2021/01/19 12:59:48;;;;;;;15.38;7.10;;;6.90;99.90;;;;;;5010530;28;20033;-56
2021/01/19 13:02:14;;;;;;;14.93;6.78;;;7.00;99.90;;;;;;5009989;28;20033;-58
2021/01/19 13:04:40;;;;;;;14.50;6.43;;;7.00;99.90;;;;;;5010452;28;20032;-56
2021/01/19 13:07:07;;;;;;;14.10;6.38;;;7.00;99.90;;;;;;5010109;28;20030;-57
2021/01/19 13:09:36;;;;;;;13.45;6.30;;;7.00;99.90;;;;;;5010466;28;20037;-54
2021/01/19 13:12:20;;;;;;;12.48;6.28;;;7.00;99.90;;;;;;5011984;28;20520;-56
2021/01/19 13:14:47;;;;;;;13.18;6.93;;;7.10;99.90;;;;;;5010410;28;20620;-55
2021/01/19 13:17:13;;;;;;;14.10;7.07;;;7.10;99.90;;;;;;5010035;28;20029;-56
2021/01/19 13:19:39;;;;;;;13.68;6.60;;;7.10;99.90;;;;;;5010535;28;20109;-58
2021/01/19 13:22:05;;;;;;;13.07;6.05;;;7.10;99.90;;;;;;4993759;28;20044;-55
2021/01/19 13:24:31;;;;;;;16.67;8.27;;;7.20;99.90;;;;;;5011277;28;20036;-58
2021/01/19 13:27:00;;;;;;;15.98;7.35;;;7.20;99.90;;;;;;5011385;28;20056;-59
2021/01/19 13:29:26;;;;;;;15.55;7.32;;;7.20;99.90;;;;;;5010209;28;20478;-59
2021/01/19 13:31:57;;;;;;;16.17;7.88;;;7.20;99.90;;;;;;5018516;28;20036;-59
2021/01/19 13:34:23;;;;;;;14.48;6.65;;;7.20;99.90;;;;;;5013623;28;20039;-57
2021/01/19 13:36:48;;;;;;;15.68;7.10;;;7.30;99.90;;;;;;5030854;28;20378;-59
2021/01/19 13:39:14;;;;;;;15.63;7.15;;;7.30;99.90;;;;;;5012497;28;20042;-58
2021/01/19 13:41:40;;;;;;;14.60;6.82;;;7.30;99.90;;;;;;5012903;28;20108;-60
2021/01/19 13:44:05;;;;;;;15.43;7.00;;;7.30;99.90;;;;;;5013237;28;20028;-60
2021/01/19 13:46:31;;;;;;;13.93;7.03;;;7.40;99.90;;;;;;5030444;28;20025;-58
2021/01/19 13:48:57;;;;;;;15.00;7.20;;;7.40;99.90;;;;;;5029975;28;20029;-58
2021/01/19 13:51:23;;;;;;;14.05;6.82;;;7.50;99.90;;;;;;5013157;28;20490;-59
2021/01/19 13:53:49;;;;;;;15.90;7.88;;;7.50;99.90;;;;;;5031204;28;20152;-59
2021/01/19 13:56:15;;;;;;;15.68;7.97;;;7.50;99.90;;;;;;5031077;28;20064;-57
2021/01/19 13:58:42;;;;;;;16.38;8.43;;;7.60;99.90;;;;;;5012376;28;20604;-58
2021/01/19 14:01:08;;;;;;;16.30;7.45;;;7.60;99.90;;;;;;5012924;28;20116;-59
2021/01/19 14:03:34;;;;;;;14.52;6.97;;;7.60;99.90;;;;;;5014363;28;20022;-59
2021/01/19 14:06:00;;;;;;;15.40;7.60;;;7.70;99.90;;;;;;5034079;28;20036;-54
2021/01/19 14:08:26;;;;;;;15.98;8.45;;;7.70;99.90;;;;;;5033506;28;20087;-57
2021/01/19 14:10:51;;;;;;;15.20;7.60;;;7.70;99.90;;;;;;5033492;28;20385;-58
2021/01/19 14:13:17;;;;;;;17.02;8.02;;;7.60;99.90;;;;;;5034604;28;20021;-57
2021/01/19 14:15:44;;;;;;;15.27;7.57;;;7.70;99.90;;;;;;5016897;28;20026;-59
2021/01/19 14:18:10;;;;;;;16.23;7.65;;;7.70;99.90;;;;;;5034213;28;20155;-60
2021/01/19 14:20:35;;;;;;;16.25;7.03;;;7.70;99.90;;;;;;5033259;28;20021;-58
2021/01/19 14:23:01;;;;;;;15.68;8.20;;;7.70;99.90;;;;;;5034325;28;20499;-55
2021/01/19 14:25:27;;;;;;;15.43;7.97;;;7.70;99.90;;;;;;5033559;28;20036;-58
2021/01/19 14:27:53;;;;;;;16.05;8.80;;;7.80;99.90;;;;;;5033379;28;20029;-57
2021/01/19 14:30:19;;;;;;;15.70;7.88;;;7.80;99.90;;;;;;5015488;28;20030;-59
2021/01/19 14:32:46;;;;;;;15.93;7.97;;;7.80;99.90;;;;;;5033758;28;20045;-58
2021/01/19 14:35:12;;;;;;;17.27;9.00;;;7.80;99.90;;;;;;5033389;28;20036;-57
2021/01/19 14:37:41;;;;;;;16.85;9.27;;;7.90;99.90;;;;;;5009455;28;20108;-58
2021/01/19 14:40:08;;;;;;;17.17;8.70;;;7.90;99.90;;;;;;5032245;28;20021;-53
2021/01/19 14:42:35;;;;;;;18.38;8.70;;;7.90;99.90;;;;;;5028305;28;20033;-63
2021/01/19 14:45:02;;;;;;;17.75;9.43;;;7.90;99.90;;;;;;4998472;28;20061;-61
2021/01/19 14:47:28;;;;;;;18.15;8.80;;;7.90;99.90;;;;;;5033808;28;20112;-56
2021/01/19 14:49:54;;;;;;;18.63;8.90;;;7.90;99.90;;;;;;5032365;28;20125;-59
2021/01/19 14:52:19;;;;;;;17.60;8.90;;;7.90;99.90;;;;;;5033682;28;20105;-54
2021/01/19 14:54:58;;;;;;;18.50;8.52;;;7.90;99.90;;;;;;5016240;28;20033;-59